createdAt,value
2022-10-04T00:01:52.511Z,98492.81
2022-10-04T00:04:39.496Z,98495.44
2022-10-04T00:07:26.387Z,98482.38
2022-10-04T00:10:23.093Z,98491.44
2022-10-04T00:13:04.233Z,98493.25
2022-10-04T00:15:38.157Z,98491.63
2022-10-04T00:18:32.314Z,98485.00
2022-10-04T00:21:06.119Z,98492.44
2022-10-04T00:23:38.565Z,98489.84
2022-10-04T00:26:43.098Z,98488.03
2022-10-04T00:29:32.202Z,98490.03
2022-10-04T00:32:10.527Z,98481.19
2022-10-04T00:34:51.154Z,98468.31
2022-10-04T00:37:23.647Z,98468.72
2022-10-04T00:40:13.467Z,98460.28
2022-10-04T00:43:18.100Z,98473.16
2022-10-04T00:45:59.492Z,98471.56
2022-10-04T00:48:50.282Z,98469.13
2022-10-04T00:51:26.982Z,98468.75
2022-10-04T00:54:33.305Z,98463.09
2022-10-04T00:57:22.696Z,98459.88
2022-10-04T01:00:21.498Z,98457.47
2022-10-04T01:03:21.147Z,98465.31
2022-10-04T01:05:59.654Z,98454.84
2022-10-04T01:08:45.614Z,98436.56
2022-10-04T01:11:30.758Z,98442.16
2022-10-04T01:14:57.680Z,98443.78
2022-10-04T01:17:27.168Z,98436.75
2022-10-04T01:19:57.272Z,98455.03
2022-10-04T01:22:50.681Z,98453.03
2022-10-04T01:25:51.138Z,98440.97
2022-10-04T01:28:20.793Z,98442.19
2022-10-04T01:30:50.421Z,98444.59
2022-10-04T01:33:19.983Z,98445.81
2022-10-04T01:35:49.626Z,98440.38
2022-10-04T01:38:19.229Z,98444.19
2022-10-04T01:41:03.162Z,98428.06
2022-10-04T01:43:42.862Z,98436.31
2022-10-04T01:46:29.156Z,98421.22
2022-10-04T01:49:05.549Z,98430.84
2022-10-04T01:51:44.084Z,98422.00
2022-10-04T01:54:25.661Z,98425.59
2022-10-04T01:57:24.025Z,98433.06
2022-10-04T02:00:01.830Z,98437.69
2022-10-04T02:02:57.178Z,98436.91
2022-10-04T02:06:00.219Z,98435.28
2022-10-04T02:08:34.863Z,98440.94
2022-10-04T02:11:06.792Z,98434.47
2022-10-04T02:13:41.383Z,98440.16
2022-10-04T02:16:12.622Z,98449.78
2022-10-04T02:18:44.288Z,98442.13
2022-10-04T02:21:16.587Z,98438.91
2022-10-04T02:23:47.671Z,98419.22
2022-10-04T02:26:17.183Z,98430.50
2022-10-04T02:28:46.785Z,98429.13
2022-10-04T02:31:42.210Z,98424.69
2022-10-04T02:34:12.697Z,98424.09
2022-10-04T02:36:42.382Z,98415.63
2022-10-04T02:39:28.974Z,98406.59
2022-10-04T02:42:09.250Z,98402.34
2022-10-04T02:44:58.717Z,98397.09
2022-10-04T02:47:50.131Z,98407.91
2022-10-04T02:50:36.270Z,98411.94
2022-10-04T02:53:30.611Z,98399.59
2022-10-04T02:56:05.942Z,98399.78
2022-10-04T02:58:39.689Z,98400.19
2022-10-04T03:01:26.690Z,98397.38
2022-10-04T03:03:58.369Z,98399.19
2022-10-04T03:06:32.957Z,98393.94
2022-10-04T03:09:06.092Z,98403.22
2022-10-04T03:11:40.805Z,98398.66
2022-10-04T03:14:20.497Z,98394.84
2022-10-04T03:16:59.089Z,98393.47
2022-10-04T03:19:32.458Z,98400.75
2022-10-04T03:22:10.431Z,98400.97
2022-10-04T03:24:53.541Z,98394.75
2022-10-04T03:27:36.312Z,98399.97
2022-10-04T03:30:06.846Z,98405.19
2022-10-04T03:32:36.603Z,98396.34
2022-10-04T03:35:32.564Z,98398.34
2022-10-04T03:38:09.083Z,98400.97
2022-10-04T03:40:53.108Z,98404.75
2022-10-04T03:43:34.747Z,98398.31
2022-10-04T03:46:06.429Z,98390.31
2022-10-04T03:48:53.401Z,98398.34
2022-10-04T03:51:27.393Z,98398.75
2022-10-04T03:54:01.372Z,98412.44
2022-10-04T03:56:37.050Z,98398.56
2022-10-04T03:59:07.610Z,98416.03
2022-10-04T04:02:06.906Z,98410.38
2022-10-04T04:04:53.651Z,98402.16
2022-10-04T04:07:45.884Z,98418.81
2022-10-04T04:10:50.515Z,98409.16
2022-10-04T04:13:51.040Z,98418.84
2022-10-04T04:16:26.396Z,98411.19
2022-10-04T04:19:02.786Z,98418.63
2022-10-04T04:21:33.352Z,98425.28
2022-10-04T04:24:18.209Z,98418.25
2022-10-04T04:26:56.403Z,98403.16
2022-10-04T04:29:52.646Z,98420.88
2022-10-04T04:32:41.623Z,98426.91
2022-10-04T04:35:36.434Z,98436.16
2022-10-04T04:38:23.302Z,98432.31
2022-10-04T04:40:57.530Z,98429.72
2022-10-04T04:43:28.318Z,98446.97
2022-10-04T04:46:22.359Z,98457.66
2022-10-04T04:48:53.692Z,98439.53
2022-10-04T04:51:26.400Z,98456.22
2022-10-04T04:53:57.101Z,98446.53
2022-10-04T04:56:30.354Z,98461.22
2022-10-04T04:59:04.934Z,98469.88
2022-10-04T05:01:41.868Z,98471.66
2022-10-04T05:04:14.257Z,98467.44
2022-10-04T05:07:19.766Z,98457.38
2022-10-04T05:09:49.158Z,98471.66
2022-10-04T05:12:24.212Z,98472.28
2022-10-04T05:14:56.885Z,98477.50
2022-10-04T05:17:35.207Z,98477.13
2022-10-04T05:20:06.084Z,98482.34
2022-10-04T05:22:45.651Z,98476.72
2022-10-04T05:25:33.513Z,98482.75
2022-10-04T05:28:03.057Z,98485.78
2022-10-04T05:30:53.930Z,98484.41
2022-10-04T05:34:02.297Z,98490.88
2022-10-04T05:36:46.729Z,98482.00
2022-10-04T05:39:29.342Z,98457.88
2022-10-04T05:42:23.327Z,98459.03
2022-10-04T05:44:54.851Z,98477.16
2022-10-04T05:47:30.311Z,98482.19
2022-10-04T05:50:01.275Z,98472.28
2022-10-04T05:52:38.924Z,98483.88
2022-10-04T05:56:05.685Z,98485.97
2022-10-04T05:58:40.935Z,98488.66
2022-10-04T06:01:47.623Z,98494.63
2022-10-04T06:04:47.447Z,98480.75
2022-10-04T06:07:41.567Z,98482.72
2022-10-04T06:10:26.140Z,98493.22
2022-10-04T06:13:29.137Z,98497.06
2022-10-04T06:16:20.496Z,98493.22
2022-10-04T06:18:52.582Z,98501.81
2022-10-04T06:21:28.086Z,98496.13
2022-10-04T06:24:03.505Z,98494.00
2022-10-04T06:26:54.215Z,98503.53
2022-10-04T06:29:38.232Z,98503.88
2022-10-04T06:32:46.320Z,98516.38
2022-10-04T06:35:35.159Z,98517.78
2022-10-04T06:38:48.791Z,98522.81
2022-10-04T06:41:42.859Z,98523.66
2022-10-04T06:44:48.843Z,98540.59
2022-10-04T06:47:49.691Z,98530.25
2022-10-04T06:51:07.974Z,98550.13
2022-10-04T06:54:14.159Z,98541.75
2022-10-04T06:57:15.676Z,98567.41
2022-10-04T07:00:29.270Z,98560.94
2022-10-04T07:03:09.772Z,98569.00
2022-10-04T07:05:48.557Z,98563.44
2022-10-04T07:08:50.095Z,98556.41
2022-10-04T07:11:44.040Z,98580.84
2022-10-04T07:14:35.745Z,98582.28
2022-10-04T07:17:15.377Z,98573.38
2022-10-04T07:19:52.113Z,98579.22
2022-10-04T07:22:47.755Z,98573.25
2022-10-04T07:25:30.789Z,98561.44
2022-10-04T07:28:27.545Z,98566.53
2022-10-04T07:31:17.195Z,98565.66
2022-10-04T07:33:56.246Z,98569.78
2022-10-04T07:36:43.547Z,98566.44
2022-10-04T07:39:30.763Z,98565.44
2022-10-04T07:42:47.069Z,98572.34
2022-10-04T07:45:30.077Z,98570.00
2022-10-04T07:48:26.096Z,98571.63
2022-10-04T07:51:17.737Z,98575.41
2022-10-04T07:54:26.573Z,98581.25
2022-10-04T07:57:35.493Z,98559.31
2022-10-04T08:00:31.517Z,98580.63
2022-10-04T08:03:21.872Z,98570.91
2022-10-04T08:06:15.007Z,98572.41
2022-10-04T08:09:17.227Z,98578.81
2022-10-04T08:12:14.619Z,98583.59
2022-10-04T08:15:08.969Z,98582.50
2022-10-04T08:17:41.903Z,98598.38
2022-10-04T08:21:05.366Z,98599.41
2022-10-04T08:23:47.425Z,98591.31
2022-10-04T08:26:54.460Z,98595.19
2022-10-04T08:30:04.842Z,98607.22
2022-10-04T08:33:17.101Z,98606.31
2022-10-04T08:36:20.906Z,98607.22
2022-10-04T08:38:58.742Z,98614.69
2022-10-04T08:42:11.266Z,98622.56
2022-10-04T08:45:08.001Z,98622.13
2022-10-04T08:48:26.389Z,98619.84
2022-10-04T08:51:38.979Z,98618.91
2022-10-04T08:54:36.491Z,98628.16
2022-10-04T08:57:16.030Z,98635.31
2022-10-04T09:00:10.840Z,98627.28
2022-10-04T09:03:05.161Z,98636.00
2022-10-04T09:05:40.804Z,98650.34
2022-10-04T09:08:47.494Z,98632.91
2022-10-04T09:11:44.726Z,98634.28
2022-10-04T09:14:38.932Z,98632.31
2022-10-04T09:17:33.408Z,98633.59
2022-10-04T09:20:38.639Z,98633.44
2022-10-04T09:23:31.510Z,98638.88
2022-10-04T09:26:21.112Z,98640.56
2022-10-04T09:29:17.551Z,98642.16
2022-10-04T09:32:01.948Z,98645.38
2022-10-04T09:34:37.739Z,98645.25
2022-10-04T09:37:52.012Z,98648.13
2022-10-04T09:40:30.496Z,98648.72
2022-10-04T09:43:42.444Z,98649.69
2022-10-04T09:46:47.703Z,98637.28
2022-10-04T09:50:02.792Z,98639.84
2022-10-04T09:52:44.765Z,98650.31
2022-10-04T09:55:20.687Z,98653.31
2022-10-04T09:58:17.486Z,98642.50
2022-10-04T10:00:51.751Z,98651.91
2022-10-04T10:03:46.270Z,98645.16
2022-10-04T10:06:53.800Z,98641.94
2022-10-04T10:10:09.546Z,98651.88
2022-10-04T10:13:42.987Z,98652.88
2022-10-04T10:16:49.963Z,98655.44
2022-10-04T10:20:16.902Z,98652.09
2022-10-04T10:22:48.967Z,98663.47
2022-10-04T10:25:25.341Z,98662.34
2022-10-04T10:28:03.615Z,98664.75
2022-10-04T10:30:59.087Z,98660.09
2022-10-04T10:33:46.493Z,98653.19
2022-10-04T10:36:38.710Z,98656.66
2022-10-04T10:39:44.659Z,98664.91
2022-10-04T10:42:19.967Z,98660.84
2022-10-04T10:45:40.584Z,98663.41
2022-10-04T10:48:18.561Z,98662.25
2022-10-04T10:51:10.911Z,98661.44
2022-10-04T10:54:07.936Z,98662.59
2022-10-04T10:57:01.817Z,98654.09
2022-10-04T11:00:08.485Z,98658.47
2022-10-04T11:03:13.080Z,98659.63
2022-10-04T11:06:32.381Z,98666.03
2022-10-04T11:09:22.870Z,98669.00
2022-10-04T11:12:24.735Z,98652.84
2022-10-04T11:15:25.953Z,98663.78
2022-10-04T11:18:45.265Z,98657.72
2022-10-04T11:21:35.196Z,98648.28
2022-10-04T11:25:01.168Z,98658.38
2022-10-04T11:27:56.653Z,98657.81
2022-10-04T11:30:55.067Z,98653.56
2022-10-04T11:34:17.568Z,98672.81
2022-10-04T11:37:21.566Z,98644.25
2022-10-04T11:40:33.140Z,98665.88
2022-10-04T11:43:20.086Z,98682.69
2022-10-04T11:46:18.601Z,98678.19
2022-10-04T11:49:25.087Z,98670.44
2022-10-04T11:52:42.144Z,98665.69
2022-10-04T11:56:19.110Z,98690.00
2022-10-04T11:59:17.873Z,98680.13
2022-10-04T12:02:20.676Z,98671.19
2022-10-04T12:05:47.946Z,98686.56
2022-10-04T12:08:44.436Z,98675.59
2022-10-04T12:11:53.774Z,98681.34
2022-10-04T12:14:58.037Z,98673.09
2022-10-04T12:18:08.346Z,98673.88
2022-10-04T12:21:16.734Z,98673.59
2022-10-04T12:43:22.641Z,98683.56
2022-10-04T12:46:24.177Z,98660.50
2022-10-04T12:49:50.250Z,98645.41
2022-10-04T12:53:09.251Z,98650.69
2022-10-04T13:07:08.887Z,98696.53
2022-10-04T13:10:23.712Z,98699.16
2022-10-04T13:13:42.264Z,98679.09
2022-10-04T13:19:33.068Z,98696.63
2022-10-04T13:22:55.577Z,98682.53
2022-10-04T13:26:28.401Z,98671.94
2022-10-04T13:29:03.017Z,98680.44
2022-10-04T13:32:28.170Z,98689.41
2022-10-04T13:35:27.283Z,98691.81
2022-10-04T13:38:32.527Z,98718.47
2022-10-04T13:41:24.225Z,98727.53
2022-10-04T13:44:26.471Z,98694.47
2022-10-04T13:47:24.024Z,98723.53
2022-10-04T13:50:15.560Z,98728.66
2022-10-04T13:53:26.944Z,98724.84
2022-10-04T13:56:37.999Z,98733.69
2022-10-04T13:59:18.498Z,98731.84
2022-10-04T14:02:29.961Z,98738.03
2022-10-04T14:05:43.859Z,98736.53
2022-10-04T14:08:33.414Z,98734.38
2022-10-04T14:11:49.231Z,98739.28
2022-10-04T14:15:00.270Z,98722.41
2022-10-04T14:18:27.255Z,98742.63
2022-10-04T14:21:19.184Z,98737.56
2022-10-04T14:24:15.326Z,98749.00
2022-10-04T14:27:27.907Z,98749.25
2022-10-04T14:30:26.005Z,98744.84
2022-10-04T14:33:19.633Z,98744.31
2022-10-04T14:36:04.341Z,98718.56
2022-10-04T14:39:14.122Z,98746.63
2022-10-04T14:42:31.377Z,98759.38
2022-10-04T14:45:28.362Z,98758.69
2022-10-04T14:48:24.579Z,98742.81
2022-10-04T14:51:32.390Z,98772.06
2022-10-04T14:54:29.220Z,98776.03
2022-10-04T14:57:08.685Z,98777.19
2022-10-04T15:00:16.940Z,98767.03
2022-10-04T15:03:40.773Z,98780.13
2022-10-04T15:06:26.673Z,98774.88
2022-10-04T15:09:26.571Z,98788.47
2022-10-04T15:12:46.035Z,98791.75
2022-10-04T15:15:59.024Z,98798.34
2022-10-04T15:19:04.647Z,98795.59
2022-10-04T15:21:49.090Z,98794.19
2022-10-04T15:24:52.309Z,98789.66
2022-10-04T15:27:33.929Z,98805.38
2022-10-04T15:30:30.862Z,98807.41
2022-10-04T15:33:36.254Z,98803.84
2022-10-04T15:36:11.847Z,98793.00
2022-10-04T15:39:04.108Z,98803.13
2022-10-04T15:42:08.066Z,98811.28
2022-10-04T15:44:55.497Z,98806.28
2022-10-04T15:47:56.937Z,98810.56
2022-10-04T15:51:17.484Z,98820.59
2022-10-04T15:54:06.207Z,98796.28
2022-10-04T15:56:45.813Z,98819.38
2022-10-04T15:59:53.793Z,98833.53
2022-10-04T16:03:17.839Z,98836.03
2022-10-04T16:06:01.047Z,98840.53
2022-10-04T16:09:17.564Z,98833.31
2022-10-04T16:12:04.571Z,98833.50
2022-10-04T16:14:57.090Z,98843.00
2022-10-04T16:17:44.972Z,98849.00
2022-10-04T16:20:23.274Z,98858.72
2022-10-04T16:23:28.408Z,98840.78
2022-10-04T16:26:34.998Z,98813.97
2022-10-04T16:29:34.798Z,98850.88
2022-10-04T16:32:19.333Z,98856.31
2022-10-04T16:35:08.550Z,98868.19
2022-10-04T16:38:19.866Z,98877.03
2022-10-04T16:40:52.505Z,98872.38
2022-10-04T16:43:32.847Z,98866.50
2022-10-04T16:46:45.260Z,98858.44
2022-10-04T16:49:31.391Z,98874.34
2022-10-04T16:52:12.849Z,98859.16
2022-10-04T16:55:25.257Z,98869.13
2022-10-04T16:58:30.854Z,98900.56
2022-10-04T17:01:40.409Z,98871.47
2022-10-04T17:04:43.146Z,98913.13
2022-10-04T17:07:53.024Z,98905.16
2022-10-04T17:10:49.730Z,98920.59
2022-10-04T17:13:31.541Z,98918.72
2022-10-04T17:16:38.295Z,98921.28
2022-10-04T17:19:52.375Z,98906.59
2022-10-04T17:23:09.539Z,98923.09
2022-10-04T17:26:03.563Z,98921.78
2022-10-04T17:29:04.147Z,98926.53
2022-10-04T17:32:12.387Z,98915.31
2022-10-04T17:35:10.120Z,98930.63
2022-10-04T17:38:07.668Z,98928.78
2022-10-04T17:41:20.965Z,98925.19
2022-10-04T17:44:38.843Z,98961.66
2022-10-04T17:47:58.337Z,98957.09
2022-10-04T17:50:55.905Z,98956.63
2022-10-04T17:53:51.788Z,98941.00
2022-10-04T17:56:52.603Z,98964.75
2022-10-04T17:59:31.253Z,98968.72
2022-10-04T18:02:11.854Z,98950.00
2022-10-04T18:04:54.953Z,98956.31
2022-10-04T18:07:38.009Z,98993.75
2022-10-04T18:10:34.928Z,98972.22
2022-10-04T18:13:34.269Z,99000.84
2022-10-04T18:16:43.145Z,98983.19
2022-10-04T18:19:34.545Z,99006.41
2022-10-04T18:22:26.588Z,98969.47
2022-10-04T18:25:23.454Z,98995.50
2022-10-04T18:28:08.528Z,99019.59
2022-10-04T18:30:49.117Z,99022.13
2022-10-04T18:33:30.062Z,99004.88
2022-10-04T18:36:31.307Z,99014.50
2022-10-04T18:39:13.063Z,99033.84
2022-10-04T18:42:01.287Z,99011.47
2022-10-04T18:44:59.161Z,99006.31
2022-10-04T18:47:42.541Z,99019.53
2022-10-04T18:50:20.936Z,99042.41
2022-10-04T18:53:31.391Z,99026.25
2022-10-04T18:56:08.265Z,99046.34
2022-10-04T18:59:25.974Z,99068.34
2022-10-04T19:02:34.078Z,99056.38
2022-10-04T19:05:19.641Z,99061.63
2022-10-04T19:08:01.271Z,99074.97
2022-10-04T19:10:42.180Z,99075.00
2022-10-04T19:13:14.607Z,99075.69
2022-10-04T19:16:11.628Z,99063.31
2022-10-04T19:19:18.911Z,99071.63
2022-10-04T19:22:27.747Z,99052.97
2022-10-04T19:25:28.045Z,99078.94
2022-10-04T19:28:07.901Z,99079.94
2022-10-04T19:31:09.968Z,99078.19
2022-10-04T19:34:10.777Z,99063.06
2022-10-04T19:36:47.428Z,99069.44
2022-10-04T19:39:41.718Z,99093.97
2022-10-04T19:42:54.630Z,99080.66
2022-10-04T19:46:02.760Z,99106.34
2022-10-04T19:48:53.456Z,99099.84
2022-10-04T19:51:51.146Z,99094.00
2022-10-04T19:54:39.779Z,99100.84
2022-10-04T19:57:15.574Z,99116.78
